sensor_id;sensor_type;location;lat;lon;timestamp;temperature;humidity
10868;DHT22;62667;48.698;8.762;2022-12-10T00:01:05;1.50;99.90
10868;DHT22;62667;48.698;8.762;2022-12-10T00:03:33;1.60;99.90
10868;DHT22;62667;48.698;8.762;2022-12-10T00:06:02;1.50;99.90
10868;DHT22;62667;48.698;8.762;2022-12-10T00:08:30;1.60;99.90
10868;DHT22;62667;48.698;8.762;2022-12-10T00:10:58;1.60;99.90
10868;DHT22;62667;48.698;8.762;2022-12-10T00:13:26;1.60;99.90
10868;DHT22;62667;48.698;8.762;2022-12-10T00:15:53;1.60;99.90
10868;DHT22;62667;48.698;8.762;2022-12-10T00:18:21;1.60;99.90
10868;DHT22;62667;48.698;8.762;2022-12-10T00:20:48;1.60;99.90
10868;DHT22;62667;48.698;8.762;2022-12-10T00:23:15;1.60;99.90
10868;DHT22;62667;48.698;8.762;2022-12-10T00:25:42;1.60;99.90
10868;DHT22;62667;48.698;8.762;2022-12-10T00:28:10;1.60;99.90
10868;DHT22;62667;48.698;8.762;2022-12-10T00:30:37;1.60;99.90
10868;DHT22;62667;48.698;8.762;2022-12-10T00:33:05;1.60;99.90
10868;DHT22;62667;48.698;8.762;2022-12-10T00:35:35;1.60;99.90
10868;DHT22;62667;48.698;8.762;2022-12-10T00:38:03;1.60;99.90
10868;DHT22;62667;48.698;8.762;2022-12-10T00:40:30;1.70;99.90
10868;DHT22;62667;48.698;8.762;2022-12-10T00:42:58;1.60;99.90
10868;DHT22;62667;48.698;8.762;2022-12-10T00:45:25;1.60;99.90
10868;DHT22;62667;48.698;8.762;2022-12-10T00:47:52;1.60;99.90
10868;DHT22;62667;48.698;8.762;2022-12-10T00:50:19;1.60;99.90
10868;DHT22;62667;48.698;8.762;2022-12-10T00:52:48;1.60;99.90
10868;DHT22;62667;48.698;8.762;2022-12-10T00:55:15;1.60;99.90
10868;DHT22;62667;48.698;8.762;2022-12-10T00:57:42;1.60;99.90
10868;DHT22;62667;48.698;8.762;2022-12-10T01:00:11;1.60;99.90
10868;DHT22;62667;48.698;8.762;2022-12-10T01:02:39;1.60;99.90
10868;DHT22;62667;48.698;8.762;2022-12-10T01:05:07;1.60;99.90
10868;DHT22;62667;48.698;8.762;2022-12-10T01:07:34;1.70;99.90
10868;DHT22;62667;48.698;8.762;2022-12-10T01:10:03;1.70;99.90
10868;DHT22;62667;48.698;8.762;2022-12-10T01:12:30;1.70;99.90
10868;DHT22;62667;48.698;8.762;2022-12-10T01:14:58;1.70;99.90
10868;DHT22;62667;48.698;8.762;2022-12-10T01:17:25;1.70;99.90
10868;DHT22;62667;48.698;8.762;2022-12-10T01:19:52;1.70;99.90
10868;DHT22;62667;48.698;8.762;2022-12-10T01:22:19;1.70;99.60
10868;DHT22;62667;48.698;8.762;2022-12-10T01:24:46;1.60;99.50
10868;DHT22;62667;48.698;8.762;2022-12-10T01:27:14;1.60;99.70
10868;DHT22;62667;48.698;8.762;2022-12-10T01:29:41;1.60;99.80
10868;DHT22;62667;48.698;8.762;2022-12-10T01:32:08;1.60;99.80
10868;DHT22;62667;48.698;8.762;2022-12-10T01:34:35;1.60;99.90
10868;DHT22;62667;48.698;8.762;2022-12-10T01:37:03;1.60;99.90
10868;DHT22;62667;48.698;8.762;2022-12-10T01:39:30;1.60;99.80
10868;DHT22;62667;48.698;8.762;2022-12-10T01:41:58;1.60;99.90
10868;DHT22;62667;48.698;8.762;2022-12-10T01:45:10;1.60;99.90
10868;DHT22;62667;48.698;8.762;2022-12-10T01:47:38;1.60;99.90
10868;DHT22;62667;48.698;8.762;2022-12-10T01:50:07;1.60;99.90
10868;DHT22;62667;48.698;8.762;2022-12-10T01:52:35;1.60;99.80
10868;DHT22;62667;48.698;8.762;2022-12-10T01:55:34;1.60;99.30
10868;DHT22;62667;48.698;8.762;2022-12-10T01:58:14;1.60;99.50
10868;DHT22;62667;48.698;8.762;2022-12-10T02:00:53;1.60;99.40
10868;DHT22;62667;48.698;8.762;2022-12-10T02:03:38;1.50;99.50
10868;DHT22;62667;48.698;8.762;2022-12-10T02:06:32;1.60;99.70
10868;DHT22;62667;48.698;8.762;2022-12-10T02:09:16;1.60;99.80
10868;DHT22;62667;48.698;8.762;2022-12-10T02:11:55;1.60;99.50
10868;DHT22;62667;48.698;8.762;2022-12-10T02:14:32;1.60;99.40
10868;DHT22;62667;48.698;8.762;2022-12-10T02:17:12;1.50;99.40
10868;DHT22;62667;48.698;8.762;2022-12-10T02:20:00;1.50;99.50
10868;DHT22;62667;48.698;8.762;2022-12-10T02:22:34;1.60;99.50
10868;DHT22;62667;48.698;8.762;2022-12-10T02:25:06;1.60;99.40
10868;DHT22;62667;48.698;8.762;2022-12-10T02:27:42;1.60;99.10
10868;DHT22;62667;48.698;8.762;2022-12-10T02:30:18;1.60;99.30
10868;DHT22;62667;48.698;8.762;2022-12-10T02:32:48;1.50;99.30
10868;DHT22;62667;48.698;8.762;2022-12-10T02:35:21;1.50;99.30
10868;DHT22;62667;48.698;8.762;2022-12-10T02:37:55;1.50;99.40
10868;DHT22;62667;48.698;8.762;2022-12-10T02:40:26;1.50;99.30
10868;DHT22;62667;48.698;8.762;2022-12-10T02:42:57;1.50;99.30
10868;DHT22;62667;48.698;8.762;2022-12-10T02:45:28;1.50;99.10
10868;DHT22;62667;48.698;8.762;2022-12-10T02:47:58;1.50;99.10
10868;DHT22;62667;48.698;8.762;2022-12-10T02:50:26;1.50;99.30
10868;DHT22;62667;48.698;8.762;2022-12-10T02:52:54;1.50;99.10
10868;DHT22;62667;48.698;8.762;2022-12-10T02:55:21;1.50;99.10
10868;DHT22;62667;48.698;8.762;2022-12-10T02:58:01;1.50;99.10
10868;DHT22;62667;48.698;8.762;2022-12-10T03:00:39;1.40;99.00
10868;DHT22;62667;48.698;8.762;2022-12-10T03:03:20;1.40;98.90
10868;DHT22;62667;48.698;8.762;2022-12-10T03:05:59;1.40;99.10
10868;DHT22;62667;48.698;8.762;2022-12-10T03:08:36;1.40;99.60
10868;DHT22;62667;48.698;8.762;2022-12-10T03:11:12;1.50;99.40
10868;DHT22;62667;48.698;8.762;2022-12-10T03:13:47;1.50;99.40
10868;DHT22;62667;48.698;8.762;2022-12-10T03:16:21;1.50;99.10
10868;DHT22;62667;48.698;8.762;2022-12-10T03:18:54;1.50;99.30
10868;DHT22;62667;48.698;8.762;2022-12-10T03:21:25;1.50;99.20
10868;DHT22;62667;48.698;8.762;2022-12-10T03:23:54;1.50;99.30
10868;DHT22;62667;48.698;8.762;2022-12-10T03:26:22;1.50;98.70
10868;DHT22;62667;48.698;8.762;2022-12-10T03:28:51;1.50;98.40
10868;DHT22;62667;48.698;8.762;2022-12-10T03:31:22;1.40;98.20
10868;DHT22;62667;48.698;8.762;2022-12-10T03:33:50;1.40;98.70
10868;DHT22;62667;48.698;8.762;2022-12-10T03:36:20;1.30;98.60
10868;DHT22;62667;48.698;8.762;2022-12-10T03:38:49;1.30;99.10
10868;DHT22;62667;48.698;8.762;2022-12-10T03:41:17;1.30;99.40
10868;DHT22;62667;48.698;8.762;2022-12-10T03:43:52;1.40;99.60
10868;DHT22;62667;48.698;8.762;2022-12-10T03:46:22;1.40;99.40
10868;DHT22;62667;48.698;8.762;2022-12-10T03:48:50;1.50;99.50
10868;DHT22;62667;48.698;8.762;2022-12-10T03:51:17;1.50;99.30
10868;DHT22;62667;48.698;8.762;2022-12-10T03:53:45;1.50;99.40
10868;DHT22;62667;48.698;8.762;2022-12-10T03:56:14;1.50;99.10
10868;DHT22;62667;48.698;8.762;2022-12-10T03:58:42;1.50;99.20
10868;DHT22;62667;48.698;8.762;2022-12-10T04:01:09;1.50;99.30
10868;DHT22;62667;48.698;8.762;2022-12-10T04:03:39;1.50;99.40
10868;DHT22;62667;48.698;8.762;2022-12-10T04:06:10;1.50;99.60
10868;DHT22;62667;48.698;8.762;2022-12-10T04:08:39;1.50;99.00
10868;DHT22;62667;48.698;8.762;2022-12-10T04:11:08;1.50;98.50
10868;DHT22;62667;48.698;8.762;2022-12-10T04:13:37;1.50;97.60
10868;DHT22;62667;48.698;8.762;2022-12-10T04:16:23;1.50;97.80
10868;DHT22;62667;48.698;8.762;2022-12-10T04:18:57;1.40;98.50
10868;DHT22;62667;48.698;8.762;2022-12-10T04:21:26;1.40;98.90
10868;DHT22;62667;48.698;8.762;2022-12-10T04:24:13;1.40;99.30
10868;DHT22;62667;48.698;8.762;2022-12-10T04:27:00;1.40;99.80
10868;DHT22;62667;48.698;8.762;2022-12-10T04:29:30;1.40;99.60
10868;DHT22;62667;48.698;8.762;2022-12-10T04:31:58;1.40;99.80
10868;DHT22;62667;48.698;8.762;2022-12-10T04:34:27;1.40;99.90
10868;DHT22;62667;48.698;8.762;2022-12-10T04:36:54;1.40;99.90
10868;DHT22;62667;48.698;8.762;2022-12-10T04:39:23;1.50;99.90
10868;DHT22;62667;48.698;8.762;2022-12-10T04:41:50;1.40;99.70
10868;DHT22;62667;48.698;8.762;2022-12-10T04:44:18;1.40;99.70
10868;DHT22;62667;48.698;8.762;2022-12-10T04:46:45;1.40;99.90
10868;DHT22;62667;48.698;8.762;2022-12-10T04:49:13;1.40;99.90
10868;DHT22;62667;48.698;8.762;2022-12-10T04:51:42;1.50;99.90
10868;DHT22;62667;48.698;8.762;2022-12-10T04:54:10;1.50;99.90
10868;DHT22;62667;48.698;8.762;2022-12-10T04:56:38;1.50;99.80
10868;DHT22;62667;48.698;8.762;2022-12-10T04:59:06;1.50;99.90
10868;DHT22;62667;48.698;8.762;2022-12-10T05:01:34;1.50;99.90
10868;DHT22;62667;48.698;8.762;2022-12-10T05:04:02;1.50;99.90
10868;DHT22;62667;48.698;8.762;2022-12-10T05:06:32;1.50;99.90
10868;DHT22;62667;48.698;8.762;2022-12-10T05:09:01;1.50;99.60
10868;DHT22;62667;48.698;8.762;2022-12-10T05:11:30;1.50;99.70
10868;DHT22;62667;48.698;8.762;2022-12-10T05:13:59;1.50;99.70
10868;DHT22;62667;48.698;8.762;2022-12-10T05:16:29;1.60;99.80
10868;DHT22;62667;48.698;8.762;2022-12-10T05:18:58;1.50;99.50
10868;DHT22;62667;48.698;8.762;2022-12-10T05:21:28;1.50;99.40
10868;DHT22;62667;48.698;8.762;2022-12-10T05:24:18;1.50;99.40
10868;DHT22;62667;48.698;8.762;2022-12-10T05:26:44;1.50;99.60
10868;DHT22;62667;48.698;8.762;2022-12-10T05:29:12;1.50;99.30
10868;DHT22;62667;48.698;8.762;2022-12-10T05:31:40;1.50;99.50
10868;DHT22;62667;48.698;8.762;2022-12-10T05:34:08;1.50;99.60
10868;DHT22;62667;48.698;8.762;2022-12-10T05:36:36;1.50;99.60
10868;DHT22;62667;48.698;8.762;2022-12-10T05:39:04;1.50;99.50
10868;DHT22;62667;48.698;8.762;2022-12-10T05:41:36;1.50;99.30
10868;DHT22;62667;48.698;8.762;2022-12-10T05:44:05;1.50;99.90
10868;DHT22;62667;48.698;8.762;2022-12-10T05:46:34;1.50;99.40
10868;DHT22;62667;48.698;8.762;2022-12-10T05:49:03;1.50;99.40
10868;DHT22;62667;48.698;8.762;2022-12-10T05:51:33;1.50;99.50
10868;DHT22;62667;48.698;8.762;2022-12-10T05:54:03;1.50;99.40
10868;DHT22;62667;48.698;8.762;2022-12-10T05:56:31;1.50;99.10
10868;DHT22;62667;48.698;8.762;2022-12-10T05:59:01;1.50;99.00
10868;DHT22;62667;48.698;8.762;2022-12-10T06:01:30;1.50;98.80
10868;DHT22;62667;48.698;8.762;2022-12-10T06:04:01;1.50;99.10
10868;DHT22;62667;48.698;8.762;2022-12-10T06:06:32;1.50;99.20
10868;DHT22;62667;48.698;8.762;2022-12-10T06:09:00;1.50;99.20
10868;DHT22;62667;48.698;8.762;2022-12-10T06:11:28;1.50;98.90
10868;DHT22;62667;48.698;8.762;2022-12-10T06:13:56;1.50;98.60
10868;DHT22;62667;48.698;8.762;2022-12-10T06:16:26;1.60;98.40
10868;DHT22;62667;48.698;8.762;2022-12-10T06:18:55;1.50;98.40
10868;DHT22;62667;48.698;8.762;2022-12-10T06:21:23;1.40;98.80
10868;DHT22;62667;48.698;8.762;2022-12-10T06:23:51;1.40;98.70
10868;DHT22;62667;48.698;8.762;2022-12-10T06:26:20;1.50;98.60
10868;DHT22;62667;48.698;8.762;2022-12-10T06:28:50;1.50;98.30
10868;DHT22;62667;48.698;8.762;2022-12-10T06:31:18;1.40;98.00
10868;DHT22;62667;48.698;8.762;2022-12-10T06:33:47;1.40;97.90
10868;DHT22;62667;48.698;8.762;2022-12-10T06:36:16;1.40;98.10
10868;DHT22;62667;48.698;8.762;2022-12-10T06:38:44;1.40;98.00
10868;DHT22;62667;48.698;8.762;2022-12-10T06:41:15;1.40;98.00
10868;DHT22;62667;48.698;8.762;2022-12-10T06:43:46;1.40;97.90
10868;DHT22;62667;48.698;8.762;2022-12-10T06:46:15;1.40;98.10
10868;DHT22;62667;48.698;8.762;2022-12-10T06:48:44;1.40;97.60
10868;DHT22;62667;48.698;8.762;2022-12-10T06:51:13;1.40;97.70
10868;DHT22;62667;48.698;8.762;2022-12-10T06:53:41;1.30;97.50
10868;DHT22;62667;48.698;8.762;2022-12-10T06:56:12;1.20;98.00
10868;DHT22;62667;48.698;8.762;2022-12-10T06:58:41;1.30;98.20
10868;DHT22;62667;48.698;8.762;2022-12-10T07:01:11;1.30;98.40
10868;DHT22;62667;48.698;8.762;2022-12-10T07:03:40;1.30;98.50
10868;DHT22;62667;48.698;8.762;2022-12-10T07:06:09;1.30;98.40
10868;DHT22;62667;48.698;8.762;2022-12-10T07:08:38;1.30;98.30
10868;DHT22;62667;48.698;8.762;2022-12-10T07:11:08;1.40;98.10
10868;DHT22;62667;48.698;8.762;2022-12-10T07:13:37;1.30;97.70
10868;DHT22;62667;48.698;8.762;2022-12-10T07:16:12;1.30;97.90
10868;DHT22;62667;48.698;8.762;2022-12-10T07:18:40;1.30;98.10
10868;DHT22;62667;48.698;8.762;2022-12-10T07:21:13;1.30;98.10
10868;DHT22;62667;48.698;8.762;2022-12-10T07:23:44;1.30;98.90
10868;DHT22;62667;48.698;8.762;2022-12-10T07:26:18;1.30;97.80
10868;DHT22;62667;48.698;8.762;2022-12-10T07:28:46;1.30;97.90
10868;DHT22;62667;48.698;8.762;2022-12-10T07:31:14;1.30;97.80
10868;DHT22;62667;48.698;8.762;2022-12-10T07:33:41;1.30;97.40
10868;DHT22;62667;48.698;8.762;2022-12-10T07:36:11;1.30;97.80
10868;DHT22;62667;48.698;8.762;2022-12-10T07:38:39;1.40;97.60
10868;DHT22;62667;48.698;8.762;2022-12-10T07:43:45;1.30;97.70
10868;DHT22;62667;48.698;8.762;2022-12-10T07:46:14;1.30;97.50
10868;DHT22;62667;48.698;8.762;2022-12-10T07:48:44;1.30;98.00
10868;DHT22;62667;48.698;8.762;2022-12-10T07:51:13;1.30;98.10
10868;DHT22;62667;48.698;8.762;2022-12-10T07:53:42;1.30;97.80
10868;DHT22;62667;48.698;8.762;2022-12-10T07:56:10;1.40;97.80
10868;DHT22;62667;48.698;8.762;2022-12-10T07:58:43;1.40;97.50
10868;DHT22;62667;48.698;8.762;2022-12-10T08:01:13;1.50;97.20
10868;DHT22;62667;48.698;8.762;2022-12-10T08:03:42;1.40;96.80
10868;DHT22;62667;48.698;8.762;2022-12-10T08:06:11;1.40;96.80
10868;DHT22;62667;48.698;8.762;2022-12-10T08:08:41;1.50;97.20
10868;DHT22;62667;48.698;8.762;2022-12-10T08:11:09;1.50;96.60
10868;DHT22;62667;48.698;8.762;2022-12-10T08:13:37;1.50;96.80
10868;DHT22;62667;48.698;8.762;2022-12-10T08:16:08;1.50;96.60
10868;DHT22;62667;48.698;8.762;2022-12-10T08:18:39;1.50;96.10
10868;DHT22;62667;48.698;8.762;2022-12-10T08:21:09;1.60;95.90
10868;DHT22;62667;48.698;8.762;2022-12-10T08:23:38;1.60;95.70
10868;DHT22;62667;48.698;8.762;2022-12-10T08:26:08;1.50;95.90
10868;DHT22;62667;48.698;8.762;2022-12-10T08:28:36;1.60;95.70
10868;DHT22;62667;48.698;8.762;2022-12-10T08:31:06;1.60;95.50
10868;DHT22;62667;48.698;8.762;2022-12-10T08:33:36;1.60;95.80
10868;DHT22;62667;48.698;8.762;2022-12-10T08:36:04;1.60;95.80
10868;DHT22;62667;48.698;8.762;2022-12-10T08:38:33;1.50;96.30
10868;DHT22;62667;48.698;8.762;2022-12-10T08:41:05;1.50;96.00
10868;DHT22;62667;48.698;8.762;2022-12-10T08:43:34;1.50;96.70
10868;DHT22;62667;48.698;8.762;2022-12-10T08:46:01;1.50;97.30
10868;DHT22;62667;48.698;8.762;2022-12-10T08:48:30;1.60;96.20
10868;DHT22;62667;48.698;8.762;2022-12-10T08:50:59;1.60;95.70
10868;DHT22;62667;48.698;8.762;2022-12-10T08:53:26;1.60;95.10
10868;DHT22;62667;48.698;8.762;2022-12-10T08:55:54;1.60;94.80
10868;DHT22;62667;48.698;8.762;2022-12-10T08:58:21;1.60;95.20
10868;DHT22;62667;48.698;8.762;2022-12-10T09:00:48;1.60;95.90
10868;DHT22;62667;48.698;8.762;2022-12-10T09:03:16;1.60;95.00
10868;DHT22;62667;48.698;8.762;2022-12-10T09:05:45;1.70;95.10
10868;DHT22;62667;48.698;8.762;2022-12-10T09:08:13;1.70;96.10
10868;DHT22;62667;48.698;8.762;2022-12-10T09:10:40;1.70;95.00
10868;DHT22;62667;48.698;8.762;2022-12-10T09:13:08;1.80;94.90
10868;DHT22;62667;48.698;8.762;2022-12-10T09:15:36;1.80;94.40
10868;DHT22;62667;48.698;8.762;2022-12-10T09:18:03;1.80;94.10
10868;DHT22;62667;48.698;8.762;2022-12-10T09:20:30;1.80;94.20
10868;DHT22;62667;48.698;8.762;2022-12-10T09:22:59;1.80;93.70
10868;DHT22;62667;48.698;8.762;2022-12-10T09:25:26;1.80;93.60
10868;DHT22;62667;48.698;8.762;2022-12-10T09:27:53;1.80;93.40
10868;DHT22;62667;48.698;8.762;2022-12-10T09:30:20;1.90;93.30
10868;DHT22;62667;48.698;8.762;2022-12-10T09:32:47;1.80;92.90
10868;DHT22;62667;48.698;8.762;2022-12-10T09:35:15;1.80;92.80
10868;DHT22;62667;48.698;8.762;2022-12-10T09:37:42;1.90;92.90
10868;DHT22;62667;48.698;8.762;2022-12-10T09:40:15;1.80;92.50
10868;DHT22;62667;48.698;8.762;2022-12-10T09:42:48;1.70;93.20
10868;DHT22;62667;48.698;8.762;2022-12-10T09:45:23;1.80;93.70
10868;DHT22;62667;48.698;8.762;2022-12-10T09:48:02;1.80;93.80
10868;DHT22;62667;48.698;8.762;2022-12-10T09:50:44;1.80;93.60
10868;DHT22;62667;48.698;8.762;2022-12-10T09:53:21;1.70;94.00
10868;DHT22;62667;48.698;8.762;2022-12-10T09:55:50;1.80;94.40
10868;DHT22;62667;48.698;8.762;2022-12-10T09:58:19;1.80;94.10
10868;DHT22;62667;48.698;8.762;2022-12-10T10:00:51;1.80;93.30
10868;DHT22;62667;48.698;8.762;2022-12-10T10:03:23;1.90;93.10
10868;DHT22;62667;48.698;8.762;2022-12-10T10:05:52;2.00;93.30
10868;DHT22;62667;48.698;8.762;2022-12-10T10:08:28;1.90;92.80
10868;DHT22;62667;48.698;8.762;2022-12-10T10:10:59;1.90;93.10
10868;DHT22;62667;48.698;8.762;2022-12-10T10:13:32;1.90;93.10
10868;DHT22;62667;48.698;8.762;2022-12-10T10:16:18;1.90;92.50
10868;DHT22;62667;48.698;8.762;2022-12-10T10:18:52;2.00;92.70
10868;DHT22;62667;48.698;8.762;2022-12-10T10:21:24;2.00;92.20
10868;DHT22;62667;48.698;8.762;2022-12-10T10:23:54;1.90;92.70
10868;DHT22;62667;48.698;8.762;2022-12-10T10:26:25;1.90;92.40
10868;DHT22;62667;48.698;8.762;2022-12-10T10:28:57;1.90;93.40
10868;DHT22;62667;48.698;8.762;2022-12-10T10:31:29;1.90;95.20
10868;DHT22;62667;48.698;8.762;2022-12-10T10:34:00;1.90;92.00
10868;DHT22;62667;48.698;8.762;2022-12-10T10:36:31;1.90;92.60
10868;DHT22;62667;48.698;8.762;2022-12-10T10:39:08;2.00;92.30
10868;DHT22;62667;48.698;8.762;2022-12-10T10:41:39;2.10;92.30
10868;DHT22;62667;48.698;8.762;2022-12-10T10:44:14;2.00;91.90
10868;DHT22;62667;48.698;8.762;2022-12-10T10:46:44;2.00;92.00
10868;DHT22;62667;48.698;8.762;2022-12-10T10:49:18;2.10;92.40
10868;DHT22;62667;48.698;8.762;2022-12-10T10:51:50;2.40;95.30
10868;DHT22;62667;48.698;8.762;2022-12-10T10:54:32;2.40;91.20
10868;DHT22;62667;48.698;8.762;2022-12-10T10:57:05;2.40;90.00
10868;DHT22;62667;48.698;8.762;2022-12-10T10:59:39;2.40;90.40
10868;DHT22;62667;48.698;8.762;2022-12-10T11:02:17;2.30;90.20
10868;DHT22;62667;48.698;8.762;2022-12-10T11:04:49;2.30;90.00
10868;DHT22;62667;48.698;8.762;2022-12-10T11:07:23;2.30;90.60
10868;DHT22;62667;48.698;8.762;2022-12-10T11:09:53;2.40;90.10
10868;DHT22;62667;48.698;8.762;2022-12-10T11:12:29;2.40;90.70
10868;DHT22;62667;48.698;8.762;2022-12-10T11:15:01;2.30;88.00
10868;DHT22;62667;48.698;8.762;2022-12-10T11:17:29;2.30;89.50
10868;DHT22;62667;48.698;8.762;2022-12-10T11:19:59;2.30;89.60
10868;DHT22;62667;48.698;8.762;2022-12-10T11:22:31;2.40;89.30
10868;DHT22;62667;48.698;8.762;2022-12-10T11:25:00;2.40;88.90
10868;DHT22;62667;48.698;8.762;2022-12-10T11:27:40;2.40;88.50
10868;DHT22;62667;48.698;8.762;2022-12-10T11:30:18;2.20;88.90
10868;DHT22;62667;48.698;8.762;2022-12-10T11:33:04;2.30;87.70
10868;DHT22;62667;48.698;8.762;2022-12-10T11:35:52;2.20;88.50
10868;DHT22;62667;48.698;8.762;2022-12-10T11:38:30;2.20;89.20
10868;DHT22;62667;48.698;8.762;2022-12-10T11:41:10;2.20;88.60
10868;DHT22;62667;48.698;8.762;2022-12-10T11:44:02;2.20;88.00
10868;DHT22;62667;48.698;8.762;2022-12-10T11:47:04;2.30;88.70
10868;DHT22;62667;48.698;8.762;2022-12-10T11:49:44;2.30;86.70
10868;DHT22;62667;48.698;8.762;2022-12-10T11:52:26;2.40;87.50
10868;DHT22;62667;48.698;8.762;2022-12-10T11:55:17;2.60;85.70
10868;DHT22;62667;48.698;8.762;2022-12-10T11:58:00;2.50;85.50
10868;DHT22;62667;48.698;8.762;2022-12-10T12:00:45;2.60;86.00
10868;DHT22;62667;48.698;8.762;2022-12-10T12:03:35;2.60;85.80
10868;DHT22;62667;48.698;8.762;2022-12-10T12:06:31;2.60;85.80
10868;DHT22;62667;48.698;8.762;2022-12-10T12:09:13;2.60;85.20
10868;DHT22;62667;48.698;8.762;2022-12-10T12:12:03;2.70;84.70
10868;DHT22;62667;48.698;8.762;2022-12-10T12:14:42;2.70;84.60
10868;DHT22;62667;48.698;8.762;2022-12-10T12:19:49;2.80;83.70
10868;DHT22;62667;48.698;8.762;2022-12-10T12:22:23;2.80;82.90
10868;DHT22;62667;48.698;8.762;2022-12-10T12:24:54;2.70;83.50
10868;DHT22;62667;48.698;8.762;2022-12-10T12:27:30;2.80;83.90
10868;DHT22;62667;48.698;8.762;2022-12-10T12:30:06;2.80;83.80
10868;DHT22;62667;48.698;8.762;2022-12-10T12:32:49;2.80;83.30
10868;DHT22;62667;48.698;8.762;2022-12-10T12:35:25;2.70;83.00
10868;DHT22;62667;48.698;8.762;2022-12-10T12:38:01;2.70;83.80
10868;DHT22;62667;48.698;8.762;2022-12-10T12:40:43;2.70;83.70
10868;DHT22;62667;48.698;8.762;2022-12-10T12:43:17;2.80;84.10
10868;DHT22;62667;48.698;8.762;2022-12-10T12:45:49;2.60;83.00
10868;DHT22;62667;48.698;8.762;2022-12-10T12:48:24;2.70;84.10
10868;DHT22;62667;48.698;8.762;2022-12-10T12:51:00;2.60;84.40
10868;DHT22;62667;48.698;8.762;2022-12-10T12:53:34;2.60;84.40
10868;DHT22;62667;48.698;8.762;2022-12-10T12:56:05;2.60;83.80
10868;DHT22;62667;48.698;8.762;2022-12-10T12:58:41;2.50;83.10
10868;DHT22;62667;48.698;8.762;2022-12-10T13:01:26;2.50;84.60
10868;DHT22;62667;48.698;8.762;2022-12-10T13:04:01;2.50;84.90
10868;DHT22;62667;48.698;8.762;2022-12-10T13:06:31;2.50;83.60
10868;DHT22;62667;48.698;8.762;2022-12-10T13:09:17;2.50;84.10
10868;DHT22;62667;48.698;8.762;2022-12-10T13:12:17;2.50;84.80
10868;DHT22;62667;48.698;8.762;2022-12-10T13:15:11;2.40;83.30
10868;DHT22;62667;48.698;8.762;2022-12-10T13:18:02;2.50;83.10
10868;DHT22;62667;48.698;8.762;2022-12-10T13:20:34;2.40;82.30
10868;DHT22;62667;48.698;8.762;2022-12-10T13:23:04;2.40;82.60
10868;DHT22;62667;48.698;8.762;2022-12-10T13:25:57;2.40;82.40
10868;DHT22;62667;48.698;8.762;2022-12-10T13:28:31;2.50;82.40
10868;DHT22;62667;48.698;8.762;2022-12-10T13:31:17;2.50;82.60
10868;DHT22;62667;48.698;8.762;2022-12-10T13:33:53;2.50;82.60
10868;DHT22;62667;48.698;8.762;2022-12-10T13:36:37;2.40;82.90
10868;DHT22;62667;48.698;8.762;2022-12-10T13:39:33;2.30;83.60
10868;DHT22;62667;48.698;8.762;2022-12-10T13:42:35;2.30;84.50
10868;DHT22;62667;48.698;8.762;2022-12-10T13:45:31;2.30;83.70
10868;DHT22;62667;48.698;8.762;2022-12-10T13:48:29;2.30;84.30
10868;DHT22;62667;48.698;8.762;2022-12-10T13:57:43;2.20;82.20
10868;DHT22;62667;48.698;8.762;2022-12-10T14:00:21;2.00;84.10
10868;DHT22;62667;48.698;8.762;2022-12-10T14:03:06;2.00;85.10
10868;DHT22;62667;48.698;8.762;2022-12-10T14:05:52;2.00;84.30
10868;DHT22;62667;48.698;8.762;2022-12-10T14:08:32;1.90;84.30
10868;DHT22;62667;48.698;8.762;2022-12-10T14:11:06;1.80;83.90
10868;DHT22;62667;48.698;8.762;2022-12-10T14:13:42;1.90;84.60
10868;DHT22;62667;48.698;8.762;2022-12-10T14:16:15;1.90;84.30
10868;DHT22;62667;48.698;8.762;2022-12-10T14:18:51;1.80;84.50
10868;DHT22;62667;48.698;8.762;2022-12-10T14:21:20;1.90;84.80
10868;DHT22;62667;48.698;8.762;2022-12-10T14:23:52;1.80;85.20
10868;DHT22;62667;48.698;8.762;2022-12-10T14:26:20;1.80;85.00
10868;DHT22;62667;48.698;8.762;2022-12-10T14:28:55;1.80;85.50
10868;DHT22;62667;48.698;8.762;2022-12-10T14:31:28;1.80;85.30
10868;DHT22;62667;48.698;8.762;2022-12-10T14:34:01;1.80;85.00
10868;DHT22;62667;48.698;8.762;2022-12-10T14:36:32;1.80;85.50
10868;DHT22;62667;48.698;8.762;2022-12-10T14:39:04;1.80;86.30
10868;DHT22;62667;48.698;8.762;2022-12-10T14:41:39;1.80;86.40
10868;DHT22;62667;48.698;8.762;2022-12-10T14:44:08;1.70;86.70
10868;DHT22;62667;48.698;8.762;2022-12-10T14:46:40;1.70;87.30
10868;DHT22;62667;48.698;8.762;2022-12-10T14:49:13;1.70;87.40
10868;DHT22;62667;48.698;8.762;2022-12-10T14:51:42;1.70;87.70
10868;DHT22;62667;48.698;8.762;2022-12-10T14:54:27;1.70;87.30
10868;DHT22;62667;48.698;8.762;2022-12-10T14:56:59;1.60;87.70
10868;DHT22;62667;48.698;8.762;2022-12-10T14:59:33;1.60;88.40
10868;DHT22;62667;48.698;8.762;2022-12-10T15:02:15;1.60;87.00
10868;DHT22;62667;48.698;8.762;2022-12-10T15:04:47;1.40;87.80
10868;DHT22;62667;48.698;8.762;2022-12-10T15:07:19;1.30;89.00
10868;DHT22;62667;48.698;8.762;2022-12-10T15:09:51;1.30;89.40
10868;DHT22;62667;48.698;8.762;2022-12-10T15:12:35;1.30;88.60
10868;DHT22;62667;48.698;8.762;2022-12-10T15:15:14;1.20;88.20
10868;DHT22;62667;48.698;8.762;2022-12-10T15:17:54;1.30;88.60
10868;DHT22;62667;48.698;8.762;2022-12-10T15:20:26;1.10;88.90
10868;DHT22;62667;48.698;8.762;2022-12-10T15:23:08;1.20;89.20
10868;DHT22;62667;48.698;8.762;2022-12-10T15:25:49;1.20;89.10
10868;DHT22;62667;48.698;8.762;2022-12-10T15:28:24;1.20;89.50
10868;DHT22;62667;48.698;8.762;2022-12-10T15:30:56;1.30;89.30
10868;DHT22;62667;48.698;8.762;2022-12-10T15:33:32;1.20;88.60
10868;DHT22;62667;48.698;8.762;2022-12-10T15:36:03;1.20;89.00
10868;DHT22;62667;48.698;8.762;2022-12-10T15:38:31;1.00;88.40
10868;DHT22;62667;48.698;8.762;2022-12-10T15:41:31;0.90;89.90
10868;DHT22;62667;48.698;8.762;2022-12-10T15:44:14;0.90;90.60
10868;DHT22;62667;48.698;8.762;2022-12-10T15:46:48;1.00;89.90
10868;DHT22;62667;48.698;8.762;2022-12-10T15:49:17;0.90;89.50
10868;DHT22;62667;48.698;8.762;2022-12-10T15:51:44;0.90;88.30
10868;DHT22;62667;48.698;8.762;2022-12-10T15:54:22;0.90;88.00
10868;DHT22;62667;48.698;8.762;2022-12-10T15:56:51;0.90;87.60
10868;DHT22;62667;48.698;8.762;2022-12-10T15:59:18;0.80;87.30
10868;DHT22;62667;48.698;8.762;2022-12-10T16:01:45;0.80;87.40
10868;DHT22;62667;48.698;8.762;2022-12-10T16:04:13;0.70;87.20
10868;DHT22;62667;48.698;8.762;2022-12-10T16:06:40;0.70;87.60
10868;DHT22;62667;48.698;8.762;2022-12-10T16:09:08;0.70;87.80
10868;DHT22;62667;48.698;8.762;2022-12-10T16:11:36;0.70;87.90
10868;DHT22;62667;48.698;8.762;2022-12-10T16:14:04;0.60;88.40
10868;DHT22;62667;48.698;8.762;2022-12-10T16:16:32;0.70;88.30
10868;DHT22;62667;48.698;8.762;2022-12-10T16:18:59;0.70;88.40
10868;DHT22;62667;48.698;8.762;2022-12-10T16:21:26;0.60;88.20
10868;DHT22;62667;48.698;8.762;2022-12-10T16:23:53;0.60;88.50
10868;DHT22;62667;48.698;8.762;2022-12-10T16:26:21;0.60;88.60
10868;DHT22;62667;48.698;8.762;2022-12-10T16:28:49;0.60;88.70
10868;DHT22;62667;48.698;8.762;2022-12-10T16:31:20;0.60;88.60